sensor_id;sensor_type;location;lat;lon;timestamp;P1;durP1;ratioP1;P2;durP2;ratioP2
43626;SDS011;29217;52.586;13.442;2022-07-29T00:01:18;5.97;;;3.40;;
43626;SDS011;29217;52.586;13.442;2022-07-29T00:03:43;16.33;;;3.63;;
43626;SDS011;29217;52.586;13.442;2022-07-29T00:06:09;6.22;;;2.97;;
43626;SDS011;29217;52.586;13.442;2022-07-29T00:08:35;9.40;;;3.25;;
43626;SDS011;29217;52.586;13.442;2022-07-29T00:11:00;6.70;;;3.17;;
43626;SDS011;29217;52.586;13.442;2022-07-29T00:13:26;6.32;;;3.17;;
43626;SDS011;29217;52.586;13.442;2022-07-29T00:15:51;5.55;;;3.00;;
43626;SDS011;29217;52.586;13.442;2022-07-29T00:18:17;4.03;;;3.08;;
43626;SDS011;29217;52.586;13.442;2022-07-29T00:20:42;6.38;;;2.90;;
43626;SDS011;29217;52.586;13.442;2022-07-29T00:23:08;10.15;;;3.30;;
43626;SDS011;29217;52.586;13.442;2022-07-29T00:25:33;4.85;;;3.00;;
43626;SDS011;29217;52.586;13.442;2022-07-29T00:27:59;9.48;;;3.25;;
43626;SDS011;29217;52.586;13.442;2022-07-29T00:30:24;7.97;;;3.40;;
43626;SDS011;29217;52.586;13.442;2022-07-29T00:32:50;6.00;;;3.40;;
43626;SDS011;29217;52.586;13.442;2022-07-29T00:35:15;10.60;;;3.53;;
43626;SDS011;29217;52.586;13.442;2022-07-29T00:37:59;5.57;;;3.25;;
43626;SDS011;29217;52.586;13.442;2022-07-29T00:40:25;8.18;;;3.70;;
43626;SDS011;29217;52.586;13.442;2022-07-29T00:42:51;7.40;;;3.53;;
43626;SDS011;29217;52.586;13.442;2022-07-29T00:45:17;9.65;;;3.00;;
43626;SDS011;29217;52.586;13.442;2022-07-29T00:47:43;7.68;;;3.10;;
43626;SDS011;29217;52.586;13.442;2022-07-29T00:50:09;8.43;;;3.20;;
43626;SDS011;29217;52.586;13.442;2022-07-29T00:52:37;8.25;;;3.65;;
43626;SDS011;29217;52.586;13.442;2022-07-29T00:55:06;9.93;;;3.50;;
43626;SDS011;29217;52.586;13.442;2022-07-29T00:57:34;5.65;;;3.15;;
43626;SDS011;29217;52.586;13.442;2022-07-29T01:00:01;5.20;;;3.22;;
43626;SDS011;29217;52.586;13.442;2022-07-29T01:02:31;5.85;;;3.20;;
43626;SDS011;29217;52.586;13.442;2022-07-29T01:04:56;5.15;;;2.95;;
43626;SDS011;29217;52.586;13.442;2022-07-29T01:07:23;6.53;;;3.17;;
43626;SDS011;29217;52.586;13.442;2022-07-29T01:09:50;5.72;;;2.72;;
43626;SDS011;29217;52.586;13.442;2022-07-29T01:12:20;11.00;;;3.30;;
43626;SDS011;29217;52.586;13.442;2022-07-29T01:14:49;3.47;;;2.70;;
43626;SDS011;29217;52.586;13.442;2022-07-29T01:17:21;7.10;;;3.05;;
43626;SDS011;29217;52.586;13.442;2022-07-29T01:22:45;7.07;;;3.20;;
43626;SDS011;29217;52.586;13.442;2022-07-29T01:28:43;5.78;;;3.45;;
43626;SDS011;29217;52.586;13.442;2022-07-29T01:31:25;5.65;;;3.00;;
43626;SDS011;29217;52.586;13.442;2022-07-29T01:34:16;21.73;;;3.75;;
43626;SDS011;29217;52.586;13.442;2022-07-29T01:36:55;11.80;;;3.45;;
43626;SDS011;29217;52.586;13.442;2022-07-29T01:39:35;7.43;;;3.03;;
43626;SDS011;29217;52.586;13.442;2022-07-29T01:47:45;5.65;;;2.88;;
43626;SDS011;29217;52.586;13.442;2022-07-29T01:50:17;8.63;;;3.15;;
43626;SDS011;29217;52.586;13.442;2022-07-29T01:52:55;6.72;;;3.17;;
43626;SDS011;29217;52.586;13.442;2022-07-29T01:55:24;7.43;;;2.85;;
43626;SDS011;29217;52.586;13.442;2022-07-29T01:57:52;8.07;;;3.30;;
43626;SDS011;29217;52.586;13.442;2022-07-29T02:00:21;8.02;;;4.25;;
43626;SDS011;29217;52.586;13.442;2022-07-29T02:02:47;5.88;;;3.00;;
43626;SDS011;29217;52.586;13.442;2022-07-29T02:05:14;8.15;;;2.95;;
43626;SDS011;29217;52.586;13.442;2022-07-29T02:07:43;5.15;;;2.72;;
43626;SDS011;29217;52.586;13.442;2022-07-29T02:10:11;5.28;;;2.83;;
43626;SDS011;29217;52.586;13.442;2022-07-29T02:12:38;11.18;;;3.38;;
43626;SDS011;29217;52.586;13.442;2022-07-29T02:15:05;3.97;;;2.88;;
43626;SDS011;29217;52.586;13.442;2022-07-29T02:17:33;6.50;;;3.03;;
43626;SDS011;29217;52.586;13.442;2022-07-29T02:20:04;7.25;;;2.90;;
43626;SDS011;29217;52.586;13.442;2022-07-29T02:22:31;4.30;;;2.38;;
43626;SDS011;29217;52.586;13.442;2022-07-29T02:25:00;9.32;;;3.60;;
43626;SDS011;29217;52.586;13.442;2022-07-29T02:27:26;10.55;;;2.88;;
43626;SDS011;29217;52.586;13.442;2022-07-29T02:29:53;8.23;;;2.70;;
43626;SDS011;29217;52.586;13.442;2022-07-29T02:32:22;10.02;;;2.58;;
43626;SDS011;29217;52.586;13.442;2022-07-29T02:34:51;3.80;;;2.47;;
43626;SDS011;29217;52.586;13.442;2022-07-29T02:37:17;5.55;;;3.42;;
43626;SDS011;29217;52.586;13.442;2022-07-29T02:39:43;13.45;;;2.88;;
43626;SDS011;29217;52.586;13.442;2022-07-29T02:42:11;10.65;;;3.28;;
43626;SDS011;29217;52.586;13.442;2022-07-29T02:44:39;15.98;;;3.00;;
43626;SDS011;29217;52.586;13.442;2022-07-29T02:49:52;4.78;;;2.78;;
43626;SDS011;29217;52.586;13.442;2022-07-29T02:55:00;6.80;;;3.00;;
43626;SDS011;29217;52.586;13.442;2022-07-29T03:00:06;4.22;;;2.63;;
43626;SDS011;29217;52.586;13.442;2022-07-29T03:02:34;10.50;;;2.42;;
43626;SDS011;29217;52.586;13.442;2022-07-29T03:05:03;7.13;;;3.00;;
43626;SDS011;29217;52.586;13.442;2022-07-29T03:07:31;8.63;;;2.60;;
43626;SDS011;29217;52.586;13.442;2022-07-29T03:09:57;12.20;;;3.53;;
43626;SDS011;29217;52.586;13.442;2022-07-29T03:12:23;6.10;;;2.83;;
43626;SDS011;29217;52.586;13.442;2022-07-29T03:14:50;5.43;;;2.80;;
43626;SDS011;29217;52.586;13.442;2022-07-29T03:17:17;5.07;;;2.92;;
43626;SDS011;29217;52.586;13.442;2022-07-29T03:19:43;4.78;;;2.72;;
43626;SDS011;29217;52.586;13.442;2022-07-29T03:22:09;5.68;;;2.88;;
43626;SDS011;29217;52.586;13.442;2022-07-29T03:24:35;6.65;;;2.70;;
43626;SDS011;29217;52.586;13.442;2022-07-29T03:27:02;7.93;;;2.95;;
43626;SDS011;29217;52.586;13.442;2022-07-29T03:29:29;5.03;;;3.00;;
43626;SDS011;29217;52.586;13.442;2022-07-29T03:31:55;4.88;;;2.33;;
43626;SDS011;29217;52.586;13.442;2022-07-29T03:34:20;8.85;;;2.80;;
43626;SDS011;29217;52.586;13.442;2022-07-29T03:36:46;12.43;;;2.88;;
43626;SDS011;29217;52.586;13.442;2022-07-29T03:39:13;9.27;;;3.15;;
43626;SDS011;29217;52.586;13.442;2022-07-29T03:41:48;3.40;;;2.22;;
43626;SDS011;29217;52.586;13.442;2022-07-29T03:44:17;8.75;;;2.88;;
43626;SDS011;29217;52.586;13.442;2022-07-29T03:46:45;5.85;;;2.50;;
43626;SDS011;29217;52.586;13.442;2022-07-29T03:49:12;6.60;;;2.42;;
43626;SDS011;29217;52.586;13.442;2022-07-29T03:51:41;5.80;;;2.78;;
43626;SDS011;29217;52.586;13.442;2022-07-29T03:54:07;4.97;;;2.80;;
43626;SDS011;29217;52.586;13.442;2022-07-29T03:56:34;7.32;;;2.58;;
43626;SDS011;29217;52.586;13.442;2022-07-29T03:59:04;7.10;;;2.53;;
43626;SDS011;29217;52.586;13.442;2022-07-29T04:01:32;4.72;;;3.17;;
43626;SDS011;29217;52.586;13.442;2022-07-29T04:03:59;8.40;;;2.92;;
43626;SDS011;29217;52.586;13.442;2022-07-29T04:06:25;4.78;;;2.80;;
43626;SDS011;29217;52.586;13.442;2022-07-29T04:08:51;8.70;;;2.55;;
43626;SDS011;29217;52.586;13.442;2022-07-29T04:11:17;8.20;;;2.58;;
43626;SDS011;29217;52.586;13.442;2022-07-29T04:13:42;3.58;;;2.30;;
43626;SDS011;29217;52.586;13.442;2022-07-29T04:16:08;4.60;;;2.55;;
43626;SDS011;29217;52.586;13.442;2022-07-29T04:18:33;6.25;;;2.75;;
43626;SDS011;29217;52.586;13.442;2022-07-29T04:20:59;7.20;;;2.42;;
43626;SDS011;29217;52.586;13.442;2022-07-29T04:23:25;10.85;;;2.63;;
43626;SDS011;29217;52.586;13.442;2022-07-29T04:25:57;4.10;;;2.53;;
43626;SDS011;29217;52.586;13.442;2022-07-29T04:28:22;6.90;;;2.70;;
43626;SDS011;29217;52.586;13.442;2022-07-29T04:30:48;4.63;;;2.38;;
43626;SDS011;29217;52.586;13.442;2022-07-29T04:33:13;6.25;;;2.50;;
43626;SDS011;29217;52.586;13.442;2022-07-29T04:35:39;9.93;;;2.50;;
43626;SDS011;29217;52.586;13.442;2022-07-29T04:38:05;17.67;;;3.03;;
43626;SDS011;29217;52.586;13.442;2022-07-29T04:40:31;7.38;;;2.63;;
43626;SDS011;29217;52.586;13.442;2022-07-29T04:42:59;5.45;;;2.78;;
43626;SDS011;29217;52.586;13.442;2022-07-29T04:45:25;19.85;;;3.30;;
43626;SDS011;29217;52.586;13.442;2022-07-29T04:47:51;4.65;;;2.75;;
43626;SDS011;29217;52.586;13.442;2022-07-29T04:50:16;11.82;;;2.67;;
43626;SDS011;29217;52.586;13.442;2022-07-29T04:52:42;6.32;;;2.22;;
43626;SDS011;29217;52.586;13.442;2022-07-29T04:55:08;6.03;;;2.70;;
43626;SDS011;29217;52.586;13.442;2022-07-29T04:57:34;5.45;;;2.95;;
43626;SDS011;29217;52.586;13.442;2022-07-29T05:00:00;6.65;;;2.63;;
43626;SDS011;29217;52.586;13.442;2022-07-29T05:02:25;4.03;;;2.65;;
43626;SDS011;29217;52.586;13.442;2022-07-29T05:04:51;8.88;;;2.45;;
43626;SDS011;29217;52.586;13.442;2022-07-29T05:07:17;6.82;;;2.60;;
43626;SDS011;29217;52.586;13.442;2022-07-29T05:09:42;4.43;;;2.10;;
43626;SDS011;29217;52.586;13.442;2022-07-29T05:12:08;7.53;;;2.60;;
43626;SDS011;29217;52.586;13.442;2022-07-29T05:14:34;6.13;;;2.65;;
43626;SDS011;29217;52.586;13.442;2022-07-29T05:17:00;11.77;;;2.67;;
43626;SDS011;29217;52.586;13.442;2022-07-29T05:19:25;4.18;;;2.30;;
43626;SDS011;29217;52.586;13.442;2022-07-29T05:21:51;5.80;;;2.30;;
43626;SDS011;29217;52.586;13.442;2022-07-29T05:24:16;4.97;;;2.67;;
43626;SDS011;29217;52.586;13.442;2022-07-29T05:26:42;7.88;;;2.85;;
43626;SDS011;29217;52.586;13.442;2022-07-29T05:29:07;7.50;;;2.40;;
43626;SDS011;29217;52.586;13.442;2022-07-29T05:31:33;6.65;;;2.85;;
43626;SDS011;29217;52.586;13.442;2022-07-29T05:33:59;4.47;;;2.50;;
43626;SDS011;29217;52.586;13.442;2022-07-29T05:36:24;4.55;;;2.58;;
43626;SDS011;29217;52.586;13.442;2022-07-29T05:38:50;6.80;;;2.50;;
43626;SDS011;29217;52.586;13.442;2022-07-29T05:41:17;36.08;;;3.95;;
43626;SDS011;29217;52.586;13.442;2022-07-29T05:43:43;7.18;;;3.05;;
43626;SDS011;29217;52.586;13.442;2022-07-29T05:46:08;5.63;;;3.15;;
43626;SDS011;29217;52.586;13.442;2022-07-29T05:48:34;8.80;;;3.75;;
43626;SDS011;29217;52.586;13.442;2022-07-29T05:50:59;29.15;;;3.95;;
43626;SDS011;29217;52.586;13.442;2022-07-29T05:53:25;15.20;;;2.97;;
43626;SDS011;29217;52.586;13.442;2022-07-29T05:55:51;11.15;;;2.95;;
43626;SDS011;29217;52.586;13.442;2022-07-29T05:58:17;5.75;;;2.53;;
43626;SDS011;29217;52.586;13.442;2022-07-29T06:00:42;6.53;;;2.45;;
43626;SDS011;29217;52.586;13.442;2022-07-29T06:03:08;11.73;;;2.53;;
43626;SDS011;29217;52.586;13.442;2022-07-29T06:05:34;8.48;;;2.50;;
43626;SDS011;29217;52.586;13.442;2022-07-29T06:08:00;6.65;;;2.50;;
43626;SDS011;29217;52.586;13.442;2022-07-29T06:10:25;8.52;;;2.78;;
43626;SDS011;29217;52.586;13.442;2022-07-29T06:12:51;9.10;;;2.33;;
43626;SDS011;29217;52.586;13.442;2022-07-29T06:15:17;7.85;;;2.42;;
43626;SDS011;29217;52.586;13.442;2022-07-29T06:17:43;6.57;;;2.50;;
43626;SDS011;29217;52.586;13.442;2022-07-29T06:20:08;4.55;;;2.40;;
43626;SDS011;29217;52.586;13.442;2022-07-29T06:22:35;5.53;;;2.63;;
43626;SDS011;29217;52.586;13.442;2022-07-29T06:25:01;6.00;;;2.55;;
43626;SDS011;29217;52.586;13.442;2022-07-29T06:27:27;4.72;;;2.30;;
43626;SDS011;29217;52.586;13.442;2022-07-29T06:29:52;6.07;;;3.53;;
43626;SDS011;29217;52.586;13.442;2022-07-29T06:32:17;9.50;;;2.42;;
43626;SDS011;29217;52.586;13.442;2022-07-29T06:34:44;4.28;;;2.42;;
43626;SDS011;29217;52.586;13.442;2022-07-29T06:37:09;13.27;;;3.50;;
43626;SDS011;29217;52.586;13.442;2022-07-29T06:39:35;3.60;;;2.20;;
43626;SDS011;29217;52.586;13.442;2022-07-29T06:42:01;4.85;;;2.40;;
43626;SDS011;29217;52.586;13.442;2022-07-29T06:44:28;5.55;;;2.28;;
43626;SDS011;29217;52.586;13.442;2022-07-29T06:46:54;5.63;;;2.63;;
43626;SDS011;29217;52.586;13.442;2022-07-29T06:49:20;8.88;;;2.10;;
43626;SDS011;29217;52.586;13.442;2022-07-29T06:51:46;6.47;;;2.42;;
43626;SDS011;29217;52.586;13.442;2022-07-29T06:54:12;6.10;;;2.10;;
43626;SDS011;29217;52.586;13.442;2022-07-29T06:56:37;6.40;;;2.30;;
43626;SDS011;29217;52.586;13.442;2022-07-29T06:59:03;6.60;;;2.35;;
43626;SDS011;29217;52.586;13.442;2022-07-29T07:01:29;8.57;;;2.42;;
43626;SDS011;29217;52.586;13.442;2022-07-29T07:03:55;4.93;;;2.53;;
43626;SDS011;29217;52.586;13.442;2022-07-29T07:06:21;7.72;;;2.28;;
43626;SDS011;29217;52.586;13.442;2022-07-29T07:08:46;4.53;;;2.20;;
43626;SDS011;29217;52.586;13.442;2022-07-29T07:11:12;6.30;;;2.13;;
43626;SDS011;29217;52.586;13.442;2022-07-29T07:13:38;7.07;;;2.20;;
43626;SDS011;29217;52.586;13.442;2022-07-29T07:16:03;10.73;;;2.38;;
43626;SDS011;29217;52.586;13.442;2022-07-29T07:18:29;10.57;;;2.78;;
43626;SDS011;29217;52.586;13.442;2022-07-29T07:20:56;4.13;;;2.10;;
43626;SDS011;29217;52.586;13.442;2022-07-29T07:23:21;4.72;;;2.05;;
43626;SDS011;29217;52.586;13.442;2022-07-29T07:25:47;7.60;;;2.10;;
43626;SDS011;29217;52.586;13.442;2022-07-29T07:28:12;6.75;;;2.00;;
43626;SDS011;29217;52.586;13.442;2022-07-29T07:30:38;4.43;;;2.42;;
43626;SDS011;29217;52.586;13.442;2022-07-29T07:33:04;10.25;;;2.47;;
43626;SDS011;29217;52.586;13.442;2022-07-29T07:35:30;3.72;;;2.25;;
43626;SDS011;29217;52.586;13.442;2022-07-29T07:37:55;4.82;;;2.00;;
43626;SDS011;29217;52.586;13.442;2022-07-29T07:40:21;9.90;;;1.85;;
43626;SDS011;29217;52.586;13.442;2022-07-29T07:42:49;2.75;;;1.60;;
43626;SDS011;29217;52.586;13.442;2022-07-29T07:45:14;5.57;;;1.95;;
43626;SDS011;29217;52.586;13.442;2022-07-29T07:47:40;6.78;;;1.90;;
43626;SDS011;29217;52.586;13.442;2022-07-29T07:50:06;7.38;;;1.67;;
43626;SDS011;29217;52.586;13.442;2022-07-29T07:52:33;6.78;;;2.20;;
43626;SDS011;29217;52.586;13.442;2022-07-29T07:54:59;5.00;;;1.60;;
43626;SDS011;29217;52.586;13.442;2022-07-29T07:57:25;5.25;;;1.67;;
43626;SDS011;29217;52.586;13.442;2022-07-29T07:59:51;4.95;;;1.67;;
43626;SDS011;29217;52.586;13.442;2022-07-29T08:02:17;5.47;;;1.83;;
43626;SDS011;29217;52.586;13.442;2022-07-29T08:04:42;6.03;;;1.70;;
43626;SDS011;29217;52.586;13.442;2022-07-29T08:07:08;4.57;;;1.58;;
43626;SDS011;29217;52.586;13.442;2022-07-29T08:09:34;5.30;;;1.48;;
43626;SDS011;29217;52.586;13.442;2022-07-29T08:12:00;8.07;;;1.50;;
43626;SDS011;29217;52.586;13.442;2022-07-29T08:14:29;5.60;;;1.70;;
43626;SDS011;29217;52.586;13.442;2022-07-29T08:16:55;4.65;;;1.45;;
43626;SDS011;29217;52.586;13.442;2022-07-29T08:19:21;3.08;;;1.50;;
43626;SDS011;29217;52.586;13.442;2022-07-29T08:21:46;6.55;;;1.65;;
43626;SDS011;29217;52.586;13.442;2022-07-29T08:24:12;3.88;;;1.70;;
43626;SDS011;29217;52.586;13.442;2022-07-29T08:26:57;7.28;;;1.50;;
43626;SDS011;29217;52.586;13.442;2022-07-29T08:29:22;2.97;;;1.38;;
43626;SDS011;29217;52.586;13.442;2022-07-29T08:31:48;5.05;;;1.80;;
43626;SDS011;29217;52.586;13.442;2022-07-29T08:34:13;8.55;;;1.67;;
43626;SDS011;29217;52.586;13.442;2022-07-29T08:36:39;4.68;;;1.60;;
43626;SDS011;29217;52.586;13.442;2022-07-29T08:39:05;5.07;;;1.45;;
43626;SDS011;29217;52.586;13.442;2022-07-29T08:41:31;5.72;;;1.60;;
43626;SDS011;29217;52.586;13.442;2022-07-29T08:43:56;6.00;;;1.90;;
43626;SDS011;29217;52.586;13.442;2022-07-29T08:46:22;2.55;;;1.40;;
43626;SDS011;29217;52.586;13.442;2022-07-29T08:48:48;5.43;;;1.70;;
43626;SDS011;29217;52.586;13.442;2022-07-29T08:51:15;1.88;;;1.38;;
43626;SDS011;29217;52.586;13.442;2022-07-29T08:53:43;7.07;;;1.58;;
43626;SDS011;29217;52.586;13.442;2022-07-29T08:56:13;6.25;;;1.60;;
43626;SDS011;29217;52.586;13.442;2022-07-29T08:58:44;2.35;;;1.30;;
43626;SDS011;29217;52.586;13.442;2022-07-29T09:01:10;3.33;;;1.50;;
43626;SDS011;29217;52.586;13.442;2022-07-29T09:03:38;16.55;;;1.90;;
43626;SDS011;29217;52.586;13.442;2022-07-29T09:06:05;4.47;;;1.38;;
43626;SDS011;29217;52.586;13.442;2022-07-29T09:08:31;8.98;;;2.00;;
43626;SDS011;29217;52.586;13.442;2022-07-29T09:10:57;6.07;;;1.60;;
43626;SDS011;29217;52.586;13.442;2022-07-29T09:13:24;6.47;;;1.65;;
43626;SDS011;29217;52.586;13.442;2022-07-29T09:15:50;2.78;;;1.60;;
43626;SDS011;29217;52.586;13.442;2022-07-29T09:21:01;6.90;;;1.65;;
43626;SDS011;29217;52.586;13.442;2022-07-29T09:24:03;5.53;;;1.58;;
43626;SDS011;29217;52.586;13.442;2022-07-29T09:26:32;5.75;;;1.30;;
43626;SDS011;29217;52.586;13.442;2022-07-29T09:28:59;3.67;;;1.60;;
43626;SDS011;29217;52.586;13.442;2022-07-29T09:31:33;3.38;;;1.30;;
43626;SDS011;29217;52.586;13.442;2022-07-29T09:34:00;6.68;;;1.60;;
43626;SDS011;29217;52.586;13.442;2022-07-29T09:36:26;4.43;;;1.30;;
43626;SDS011;29217;52.586;13.442;2022-07-29T09:38:58;4.07;;;1.40;;
43626;SDS011;29217;52.586;13.442;2022-07-29T09:41:25;5.95;;;1.48;;
43626;SDS011;29217;52.586;13.442;2022-07-29T09:43:55;7.10;;;1.50;;
43626;SDS011;29217;52.586;13.442;2022-07-29T09:46:21;7.30;;;1.35;;
43626;SDS011;29217;52.586;13.442;2022-07-29T09:49:07;5.28;;;1.40;;
43626;SDS011;29217;52.586;13.442;2022-07-29T09:51:37;2.20;;;1.30;;
43626;SDS011;29217;52.586;13.442;2022-07-29T09:56:48;10.73;;;1.42;;
43626;SDS011;29217;52.586;13.442;2022-07-29T09:59:14;4.25;;;1.40;;
43626;SDS011;29217;52.586;13.442;2022-07-29T10:01:40;10.30;;;1.63;;
43626;SDS011;29217;52.586;13.442;2022-07-29T10:04:06;8.90;;;1.65;;
43626;SDS011;29217;52.586;13.442;2022-07-29T10:06:31;7.03;;;1.63;;
43626;SDS011;29217;52.586;13.442;2022-07-29T10:09:09;3.70;;;1.30;;
43626;SDS011;29217;52.586;13.442;2022-07-29T10:11:36;6.72;;;1.48;;
43626;SDS011;29217;52.586;13.442;2022-07-29T10:14:02;4.32;;;1.17;;
43626;SDS011;29217;52.586;13.442;2022-07-29T10:16:29;3.08;;;1.30;;
43626;SDS011;29217;52.586;13.442;2022-07-29T10:18:58;8.25;;;1.20;;
43626;SDS011;29217;52.586;13.442;2022-07-29T10:21:26;6.28;;;1.40;;
43626;SDS011;29217;52.586;13.442;2022-07-29T10:23:52;7.25;;;1.45;;
43626;SDS011;29217;52.586;13.442;2022-07-29T10:26:19;9.63;;;1.50;;
43626;SDS011;29217;52.586;13.442;2022-07-29T10:28:45;4.10;;;1.30;;
43626;SDS011;29217;52.586;13.442;2022-07-29T10:31:13;6.82;;;1.50;;
43626;SDS011;29217;52.586;13.442;2022-07-29T10:39:32;5.65;;;1.25;;
43626;SDS011;29217;52.586;13.442;2022-07-29T10:42:22;6.00;;;1.50;;
43626;SDS011;29217;52.586;13.442;2022-07-29T10:44:50;10.10;;;1.75;;
43626;SDS011;29217;52.586;13.442;2022-07-29T10:47:20;2.55;;;1.23;;
43626;SDS011;29217;52.586;13.442;2022-07-29T10:50:03;4.95;;;1.30;;
43626;SDS011;29217;52.586;13.442;2022-07-29T10:55:30;10.13;;;1.30;;
43626;SDS011;29217;52.586;13.442;2022-07-29T11:00:44;9.77;;;1.60;;
43626;SDS011;29217;52.586;13.442;2022-07-29T11:06:09;3.40;;;1.20;;
43626;SDS011;29217;52.586;13.442;2022-07-29T11:08:35;2.45;;;1.20;;
43626;SDS011;29217;52.586;13.442;2022-07-29T11:13:56;5.07;;;1.20;;
43626;SDS011;29217;52.586;13.442;2022-07-29T11:16:22;2.13;;;1.17;;
43626;SDS011;29217;52.586;13.442;2022-07-29T11:21:40;7.85;;;1.50;;
43626;SDS011;29217;52.586;13.442;2022-07-29T11:24:13;10.63;;;1.70;;
43626;SDS011;29217;52.586;13.442;2022-07-29T11:26:39;5.18;;;1.50;;
43626;SDS011;29217;52.586;13.442;2022-07-29T11:29:13;4.18;;;1.40;;
43626;SDS011;29217;52.586;13.442;2022-07-29T11:31:45;8.52;;;1.42;;
43626;SDS011;29217;52.586;13.442;2022-07-29T11:34:26;3.67;;;1.50;;
43626;SDS011;29217;52.586;13.442;2022-07-29T11:39:36;4.40;;;1.38;;
43626;SDS011;29217;52.586;13.442;2022-07-29T11:50:15;3.70;;;1.73;;
43626;SDS011;29217;52.586;13.442;2022-07-29T11:52:44;6.18;;;1.63;;
43626;SDS011;29217;52.586;13.442;2022-07-29T11:55:12;5.72;;;1.40;;
43626;SDS011;29217;52.586;13.442;2022-07-29T11:57:49;9.63;;;1.85;;
43626;SDS011;29217;52.586;13.442;2022-07-29T12:00:28;3.08;;;1.50;;
43626;SDS011;29217;52.586;13.442;2022-07-29T12:02:54;8.82;;;1.65;;
43626;SDS011;29217;52.586;13.442;2022-07-29T12:05:21;25.25;;;2.35;;
43626;SDS011;29217;52.586;13.442;2022-07-29T12:10:36;2.58;;;1.15;;
43626;SDS011;29217;52.586;13.442;2022-07-29T12:13:02;3.53;;;1.50;;
43626;SDS011;29217;52.586;13.442;2022-07-29T12:15:29;8.38;;;1.70;;
43626;SDS011;29217;52.586;13.442;2022-07-29T12:17:55;4.10;;;1.63;;
43626;SDS011;29217;52.586;13.442;2022-07-29T12:20:28;5.47;;;1.48;;
43626;SDS011;29217;52.586;13.442;2022-07-29T12:22:54;7.65;;;1.40;;
43626;SDS011;29217;52.586;13.442;2022-07-29T12:25:22;10.05;;;1.63;;
43626;SDS011;29217;52.586;13.442;2022-07-29T12:28:01;7.15;;;1.67;;
43626;SDS011;29217;52.586;13.442;2022-07-29T12:33:12;4.13;;;1.77;;
43626;SDS011;29217;52.586;13.442;2022-07-29T12:35:38;7.60;;;2.03;;
43626;SDS011;29217;52.586;13.442;2022-07-29T12:38:04;7.65;;;1.65;;
43626;SDS011;29217;52.586;13.442;2022-07-29T12:40:30;3.30;;;1.60;;
43626;SDS011;29217;52.586;13.442;2022-07-29T12:45:36;4.97;;;1.77;;
43626;SDS011;29217;52.586;13.442;2022-07-29T12:48:03;6.38;;;1.60;;
43626;SDS011;29217;52.586;13.442;2022-07-29T12:50:29;4.65;;;2.00;;
43626;SDS011;29217;52.586;13.442;2022-07-29T12:53:07;7.20;;;2.00;;
43626;SDS011;29217;52.586;13.442;2022-07-29T12:55:41;3.47;;;1.88;;
43626;SDS011;29217;52.586;13.442;2022-07-29T12:58:09;3.13;;;1.70;;
43626;SDS011;29217;52.586;13.442;2022-07-29T13:00:34;7.53;;;2.05;;
43626;SDS011;29217;52.586;13.442;2022-07-29T13:03:00;11.77;;;2.20;;
43626;SDS011;29217;52.586;13.442;2022-07-29T13:05:42;8.70;;;2.13;;
43626;SDS011;29217;52.586;13.442;2022-07-29T13:08:13;11.00;;;2.20;;
43626;SDS011;29217;52.586;13.442;2022-07-29T13:10:40;6.70;;;1.80;;
43626;SDS011;29217;52.586;13.442;2022-07-29T13:13:12;16.75;;;2.08;;
43626;SDS011;29217;52.586;13.442;2022-07-29T13:15:40;13.57;;;2.20;;
43626;SDS011;29217;52.586;13.442;2022-07-29T13:20:52;6.68;;;2.10;;
43626;SDS011;29217;52.586;13.442;2022-07-29T13:23:17;7.18;;;2.08;;
43626;SDS011;29217;52.586;13.442;2022-07-29T13:25:43;5.40;;;2.20;;
43626;SDS011;29217;52.586;13.442;2022-07-29T13:28:08;5.72;;;1.85;;
43626;SDS011;29217;52.586;13.442;2022-07-29T13:30:35;5.38;;;1.92;;
43626;SDS011;29217;52.586;13.442;2022-07-29T13:33:00;11.85;;;2.47;;
43626;SDS011;29217;52.586;13.442;2022-07-29T13:35:26;5.05;;;1.92;;
43626;SDS011;29217;52.586;13.442;2022-07-29T13:37:54;7.60;;;2.08;;
43626;SDS011;29217;52.586;13.442;2022-07-29T13:40:20;7.85;;;2.10;;
43626;SDS011;29217;52.586;13.442;2022-07-29T13:42:45;6.07;;;2.20;;
43626;SDS011;29217;52.586;13.442;2022-07-29T13:45:11;5.53;;;2.08;;
43626;SDS011;29217;52.586;13.442;2022-07-29T13:47:37;8.98;;;2.10;;
43626;SDS011;29217;52.586;13.442;2022-07-29T13:50:03;6.35;;;2.20;;
43626;SDS011;29217;52.586;13.442;2022-07-29T13:52:31;7.82;;;2.22;;
43626;SDS011;29217;52.586;13.442;2022-07-29T13:54:57;8.52;;;1.92;;
43626;SDS011;29217;52.586;13.442;2022-07-29T13:57:22;14.02;;;2.38;;
43626;SDS011;29217;52.586;13.442;2022-07-29T13:59:48;10.93;;;2.15;;
43626;SDS011;29217;52.586;13.442;2022-07-29T14:02:15;6.97;;;2.30;;
43626;SDS011;29217;52.586;13.442;2022-07-29T14:04:41;4.53;;;2.15;;
43626;SDS011;29217;52.586;13.442;2022-07-29T14:07:07;30.55;;;3.40;;
43626;SDS011;29217;52.586;13.442;2022-07-29T14:09:33;5.78;;;2.25;;
43626;SDS011;29217;52.586;13.442;2022-07-29T14:11:58;3.90;;;2.15;;
43626;SDS011;29217;52.586;13.442;2022-07-29T14:14:24;3.80;;;2.30;;
43626;SDS011;29217;52.586;13.442;2022-07-29T14:16:49;4.65;;;2.30;;
43626;SDS011;29217;52.586;13.442;2022-07-29T14:19:15;3.95;;;2.20;;
43626;SDS011;29217;52.586;13.442;2022-07-29T14:21:41;8.70;;;2.72;;
43626;SDS011;29217;52.586;13.442;2022-07-29T14:24:06;8.98;;;2.42;;
43626;SDS011;29217;52.586;13.442;2022-07-29T14:26:32;7.03;;;2.35;;
43626;SDS011;29217;52.586;13.442;2022-07-29T14:28:57;11.20;;;2.05;;
43626;SDS011;29217;52.586;13.442;2022-07-29T14:31:23;11.15;;;2.40;;
43626;SDS011;29217;52.586;13.442;2022-07-29T14:33:48;5.85;;;2.03;;
43626;SDS011;29217;52.586;13.442;2022-07-29T14:36:14;4.22;;;2.03;;
43626;SDS011;29217;52.586;13.442;2022-07-29T14:38:40;4.82;;;2.22;;
43626;SDS011;29217;52.586;13.442;2022-07-29T14:41:06;8.55;;;2.50;;
43626;SDS011;29217;52.586;13.442;2022-07-29T14:43:33;7.03;;;2.42;;
43626;SDS011;29217;52.586;13.442;2022-07-29T14:45:59;7.82;;;2.35;;
43626;SDS011;29217;52.586;13.442;2022-07-29T14:48:25;10.48;;;2.40;;
43626;SDS011;29217;52.586;13.442;2022-07-29T14:50:51;4.43;;;2.33;;
43626;SDS011;29217;52.586;13.442;2022-07-29T14:53:16;4.78;;;2.08;;
43626;SDS011;29217;52.586;13.442;2022-07-29T14:55:42;4.72;;;2.10;;
43626;SDS011;29217;52.586;13.442;2022-07-29T14:58:08;6.18;;;2.63;;
43626;SDS011;29217;52.586;13.442;2022-07-29T15:00:34;6.03;;;2.20;;
43626;SDS011;29217;52.586;13.442;2022-07-29T15:03:02;5.90;;;2.17;;
43626;SDS011;29217;52.586;13.442;2022-07-29T15:05:28;11.93;;;2.60;;
43626;SDS011;29217;52.586;13.442;2022-07-29T15:07:57;5.60;;;2.20;;
43626;SDS011;29217;52.586;13.442;2022-07-29T15:10:23;5.18;;;2.22;;
43626;SDS011;29217;52.586;13.442;2022-07-29T15:12:51;3.83;;;2.25;;
43626;SDS011;29217;52.586;13.442;2022-07-29T15:15:16;4.15;;;2.10;;
43626;SDS011;29217;52.586;13.442;2022-07-29T15:17:42;6.72;;;2.13;;
43626;SDS011;29217;52.586;13.442;2022-07-29T15:20:07;7.57;;;2.10;;
43626;SDS011;29217;52.586;13.442;2022-07-29T15:22:33;6.82;;;2.55;;
43626;SDS011;29217;52.586;13.442;2022-07-29T15:24:59;5.15;;;2.70;;
43626;SDS011;29217;52.586;13.442;2022-07-29T15:27:24;6.03;;;2.50;;
43626;SDS011;29217;52.586;13.442;2022-07-29T15:29:50;5.75;;;2.50;;
43626;SDS011;29217;52.586;13.442;2022-07-29T15:32:16;5.22;;;2.00;;
43626;SDS011;29217;52.586;13.442;2022-07-29T15:34:41;9.10;;;2.15;;
43626;SDS011;29217;52.586;13.442;2022-07-29T15:37:07;10.68;;;2.33;;
43626;SDS011;29217;52.586;13.442;2022-07-29T15:39:32;12.80;;;2.30;;
43626;SDS011;29217;52.586;13.442;2022-07-29T15:41:58;6.90;;;2.38;;